Time;durP1;ratioP1;P1;durP2;ratioP2;P2;SDS_P1;SDS_P2;PMS_P1;PMS_P2;Temp;Humidity;BMP_temperature;BMP_pressure;BME280_temperature;BME280_humidity;BME280_pressure;Samples;Min_cycle;Max_cycle;Signal;HPM_P1;HPM_P2
2023/02/26 06:53:20;;;;;;;;;6.00;4.25;;;;;4.59;50.83;101421.28;4877601;29;46849;-71
2023/02/26 06:55:54;;;;;;;;;4.25;4.25;;;;;4.64;51.09;101427.47;4884674;29;45541;-72
2023/02/26 06:58:23;;;;;;;;;5.25;4.00;;;;;4.79;51.05;101468.03;4872314;29;45712;-72
2023/02/26 07:00:54;;;;;;;;;2.75;2.00;;;;;4.55;51.06;101431.84;4883274;29;47835;-72
2023/02/26 07:03:22;;;;;;;;;5.00;4.50;;;;;4.50;51.23;101418.59;4873157;29;45866;-73
2023/02/26 07:05:47;;;;;;;;;6.75;6.00;;;;;4.64;50.97;101439.78;4883290;29;45408;-72
2023/02/26 07:15:00;;;;;;;;;;;;;;;;;;;;;
2023/02/26 07:17:33;;;;;;;;;6.00;5.00;;;;;4.70;51.15;101468.91;4874258;29;67949;-71
2023/02/26 07:20:15;;;;;;;;;;;;;;;;;;;;;
2023/02/26 07:22:52;;;;;;;;;9.00;6.00;;;;;4.69;51.14;101466.25;4873421;29;74138;-71
2023/02/26 07:25:23;;;;;;;;;10.50;4.25;;;;;4.74;51.69;101456.56;4881317;29;45841;-71
2023/02/26 07:28:03;;;;;;;;;5.25;5.25;;;;;4.78;51.22;101468.94;4875135;29;45517;-71
2023/02/26 07:30:31;;;;;;;;;5.75;5.75;;;;;4.69;51.00;101475.06;4868786;29;46017;-71
2023/02/26 07:32:57;;;;;;;;;5.25;4.50;;;;;4.52;50.90;101460.91;4875195;29;45630;-71
2023/02/26 07:35:27;;;;;;;;;9.00;6.25;;;;;4.69;51.36;101484.75;4880162;29;45391;-71
2023/02/26 07:37:55;;;;;;;;;11.00;6.00;;;;;4.88;51.06;101509.50;4870696;29;45504;-71
2023/02/26 07:40:40;;;;;;;;;5.00;4.00;;;;;4.90;51.33;101518.34;4877178;29;45617;-70
2023/02/26 07:43:06;;;;;;;;;7.25;3.75;;;;;4.56;51.92;101465.31;4878248;29;45584;-71
2023/02/26 07:45:34;;;;;;;;;7.50;5.00;;;;;4.40;51.28;101456.44;4871783;29;45446;-72
2023/02/26 07:48:00;;;;;;;;;3.50;3.50;;;;;4.80;51.99;101515.66;4865645;29;45377;-72
2023/02/26 07:51:32;;;;;;;;;5.00;5.00;;;;;4.73;51.41;101507.72;4865342;29;45383;-71
2023/02/26 07:53:38;;;;;;;;;5.00;5.00;;;;;4.44;52.08;101460.84;4869514;29;45723;-72
2023/02/26 07:56:04;;;;;;;;;5.00;5.00;;;;;4.42;51.66;101463.50;4878966;29;45295;-72
2023/02/26 07:58:31;;;;;;;;;7.25;5.50;;;;;4.59;52.11;101497.06;4873516;29;45354;-71
2023/02/26 08:00:57;;;;;;;;;4.00;2.75;;;;;4.56;52.10;101479.44;4878324;29;45500;-72
2023/02/26 08:03:22;;;;;;;;;7.50;5.50;;;;;4.58;52.56;101493.53;4877657;29;46840;-72
2023/02/26 08:06:04;;;;;;;;;;;;;;;;;;;;;
2023/02/26 08:16:25;;;;;;;;;6.25;3.50;;;;;4.98;52.02;101548.38;4855685;29;45427;-71
2023/02/26 08:19:22;;;;;;;;;6.50;4.75;;;;;4.90;53.00;101529.81;4870272;29;45913;-70
2023/02/26 08:25:55;;;;;;;;;;;;;;;;;;;;;
2023/02/26 09:05:51;;;;;;;;;2.25;2.25;;;;;4.88;51.66;101607.38;4678981;30;45522;-71
2023/02/26 09:09:21;;;;;;;;;;;;;;;;;;;;;
2023/02/26 09:12:32;;;;;;;;;;;;;;;;;;;;;
2023/02/26 09:19:15;;;;;;;;;;;;;;;;;;;;;
2023/02/26 09:24:56;;;;;;;;;3.00;2.00;;;;;4.27;49.68;101537.44;4793764;29;45593;-71
2023/02/26 09:27:21;;;;;;;;;1.25;1.25;;;;;4.24;49.53;101555.91;4800694;29;45374;-73
2023/02/26 09:29:47;;;;;;;;;1.25;1.25;;;;;4.48;49.75;101584.28;4849819;29;45512;-73
2023/02/26 09:32:12;;;;;;;;;5.00;2.00;;;;;4.36;49.42;101569.22;4830071;29;46090;-73
2023/02/26 09:34:38;;;;;;;;;6.00;2.75;;;;;4.35;48.79;101566.56;4829060;29;45396;-73
2023/02/26 09:37:05;;;;;;;;;5.75;3.00;;;;;4.40;49.30;101557.78;4835705;29;45517;-73
2023/02/26 09:39:31;;;;;;;;;5.75;2.50;;;;;4.67;49.43;101606.41;4863234;29;45472;-73
2023/02/26 09:42:06;;;;;;;;;2.75;2.00;;;;;4.36;49.57;101561.28;4846087;29;46318;-73
2023/02/26 09:44:36;;;;;;;;;3.75;1.50;;;;;4.50;48.26;101589.56;4857679;29;45533;-70
2023/02/26 09:47:22;;;;;;;;;1.00;1.00;;;;;4.76;48.19;101632.94;4862808;29;45489;-77
2023/02/26 09:50:04;;;;;;;;;3.75;3.25;;;;;4.72;47.90;101617.91;4856638;29;45454;-75
2023/02/26 09:52:45;;;;;;;;;1.25;1.25;;;;;4.60;47.87;101600.19;4845052;29;45413;-69
2023/02/26 09:55:11;;;;;;;;;2.25;2.00;;;;;4.86;48.31;101633.88;4849136;29;45630;-75
2023/02/26 09:57:41;;;;;;;;;2.00;2.00;;;;;4.92;48.48;101652.41;4850529;29;45465;-71
2023/02/26 10:00:17;;;;;;;;;1.50;1.00;;;;;4.69;47.49;101611.72;4852148;29;45510;-70
2023/02/26 10:03:04;;;;;;;;;4.50;2.00;;;;;4.94;47.87;101644.47;4848828;29;45413;-73
2023/02/26 10:05:53;;;;;;;;;4.75;3.25;;;;;4.72;47.94;101585.28;4836631;29;45456;-75
2023/02/26 10:08:23;;;;;;;;;2.00;2.00;;;;;5.03;47.33;101639.25;4855398;29;46905;-73
2023/02/26 10:10:53;;;;;;;;;2.50;1.75;;;;;4.83;46.68;101612.69;4844709;29;45636;-72
2023/02/26 10:13:34;;;;;;;;;3.50;2.00;;;;;5.11;47.02;101674.56;4840498;29;47083;-74
2023/02/26 10:16:06;;;;;;;;;7.00;2.00;;;;;4.75;47.00;101591.47;4841099;29;45454;-70
2023/02/26 10:19:10;;;;;;;;;2.00;2.00;;;;;5.08;47.17;101677.19;4851502;29;45665;-72
2023/02/26 10:22:04;;;;;;;;;2.25;2.00;;;;;5.00;46.04;101668.31;4815647;29;45749;-70
2023/02/26 10:24:45;;;;;;;;;1.50;1.50;;;;;4.96;46.64;101680.66;4852316;29;46500;-70
2023/02/26 10:27:16;;;;;;;;;2.00;2.00;;;;;4.76;45.48;101646.16;4838586;29;45481;-70
2023/02/26 10:29:52;;;;;;;;;0.00;0.00;;;;;4.76;45.59;101618.78;4837520;29;45554;-71
2023/02/26 10:33:07;;;;;;;;;1.00;1.00;;;;;4.96;46.47;101656.84;4841247;29;45774;-71
2023/02/26 10:35:43;;;;;;;;;1.25;1.25;;;;;4.60;45.68;101597.56;4807238;29;45920;-70
2023/02/26 10:38:17;;;;;;;;;1.75;1.75;;;;;4.53;45.29;101602.81;4842358;29;45700;-71
2023/02/26 10:41:08;;;;;;;;;2.00;2.00;;;;;4.94;45.74;101665.63;4849726;29;45559;-71
2023/02/26 10:43:41;;;;;;;;;1.25;1.00;;;;;4.96;45.19;101674.47;4852422;29;45598;-70
2023/02/26 10:46:24;;;;;;;;;1.00;1.00;;;;;4.94;44.38;101671.81;4838917;29;48349;-70
2023/02/26 10:49:39;;;;;;;;;1.00;1.00;;;;;4.56;44.10;101601.06;4863301;29;45791;-70
2023/02/26 10:52:20;;;;;;;;;0.25;0.25;;;;;4.85;44.10;101633.84;4857275;29;45481;-70
2023/02/26 10:55:06;;;;;;;;;3.75;2.00;;;;;4.94;43.38;101663.88;4870943;29;45342;-70
2023/02/26 10:57:41;;;;;;;;;0.00;0.00;;;;;4.75;43.53;101638.22;4879119;29;46814;-71
2023/02/26 11:01:26;;;;;;;;;;;;;;;;;;;;;
2023/02/26 11:04:49;;;;;;;;;;;;;;;;;;;;;
2023/02/26 11:29:33;;;;;;;;;;;;;;;;;;;;;
2023/02/26 11:36:36;;;;;;;;;;;;;;;;;;;;;
2023/02/26 11:39:32;;;;;;;;;1.00;1.00;;;;;5.51;41.56;101676.47;4855638;29;45628;-72
2023/02/26 11:42:17;;;;;;;;;1.00;1.00;;;;;5.37;41.60;101660.56;4829456;29;45555;-71
2023/02/26 11:44:44;;;;;;;;;1.00;1.00;;;;;5.13;41.83;101614.59;4892370;29;45543;-75
2023/02/26 11:47:16;;;;;;;;;1.25;1.00;;;;;5.27;41.07;101634.94;4866390;29;48130;-76
2023/02/26 11:49:51;;;;;;;;;4.75;2.00;;;;;5.44;41.32;101649.09;4881533;29;45758;-77
2023/02/26 11:52:21;;;;;;;;;2.00;2.00;;;;;5.62;41.98;101681.84;4875079;29;45454;-76
2023/02/26 11:54:53;;;;;;;;;1.00;0.75;;;;;5.60;41.35;101675.63;4867011;29;45532;-77
2023/02/26 11:57:56;;;;;;;;;0.00;0.00;;;;;5.64;40.61;101673.00;4862574;29;46311;-67
2023/02/26 12:00:30;;;;;;;;;1.75;1.75;;;;;5.19;41.25;101617.25;4859102;29;45429;-76
2023/02/26 12:03:14;;;;;;;;;1.00;1.00;;;;;5.59;40.78;101652.69;4884263;29;45602;-77
2023/02/26 12:05:40;;;;;;;;;0.00;0.00;;;;;5.35;41.60;101606.72;4882714;29;45614;-77
2023/02/26 12:08:20;;;;;;;;;1.25;1.25;;;;;5.56;41.32;101619.13;4856663;29;46352;-77
2023/02/26 12:11:06;;;;;;;;;2.00;1.00;;;;;5.57;41.40;101610.31;4883903;29;45603;-76
2023/02/26 12:13:37;;;;;;;;;2.00;2.00;;;;;5.96;41.38;101668.66;4867010;29;45619;-76
2023/02/26 12:16:12;;;;;;;;;1.75;1.75;;;;;5.97;41.54;101663.41;4866781;29;45553;-78
2023/02/26 12:18:58;;;;;;;;;2.00;2.00;;;;;5.63;40.25;101588.22;4883750;29;45399;-78
2023/02/26 12:21:38;;;;;;;;;1.25;1.00;;;;;6.04;41.29;101669.59;4877812;29;45371;-77
2023/02/26 12:34:12;;;;;;;;;2.50;1.00;;;;;6.01;40.56;101666.94;5079282;23;46470;-72
2023/02/26 12:37:01;;;;;;;;;1.00;0.75;;;;;6.04;40.56;101675.75;4856155;29;45573;-71
2023/02/26 12:39:36;;;;;;;;;1.75;1.00;;;;;6.04;40.87;101662.50;4864110;29;45368;-71
2023/02/26 12:42:10;;;;;;;;;1.25;1.25;;;;;6.00;40.65;101652.81;4864292;29;46285;-70
2023/02/26 12:51:48;;;;;;;;;;;;;;;;;;;;;
2023/02/26 13:27:39;;;;;;;;;1.00;1.00;;;;;6.65;39.18;101648.38;4937437;23;45787;-84
2023/02/26 13:30:14;;;;;;;;;1.75;1.00;;;;;6.24;38.97;101606.84;4898506;29;45737;-79
2023/02/26 13:32:42;;;;;;;;;1.75;1.75;;;;;6.18;38.24;101603.31;4896365;28;45668;-81
2023/02/26 13:35:27;;;;;;;;;1.00;1.00;;;;;6.34;38.89;101625.41;4908315;28;45550;-76
2023/02/26 13:37:59;;;;;;;;;2.00;2.00;;;;;6.35;39.03;101619.22;4901335;28;46385;-78
2023/02/26 13:40:40;;;;;;;;;1.25;1.25;;;;;6.66;38.72;101671.34;4913986;28;45530;-77
2023/02/26 13:44:01;;;;;;;;;;;;;;;;;;;;;
2023/02/26 13:47:05;;;;;;;;;1.75;1.75;;;;;6.69;38.80;101657.19;4895050;28;45798;-76
2023/02/26 13:49:58;;;;;;;;;0.00;0.00;;;;;6.42;38.83;101598.00;4885774;28;47965;-78
2023/02/26 14:15:26;;;;;;;;;;;;;;;;;;;;;
2023/02/26 15:06:58;;;;;;;;;2.00;2.00;;;;;6.82;37.68;101676.66;5117423;23;46149;-79
2023/02/26 15:10:13;;;;;;;;;4.00;4.00;;;;;6.86;37.83;101676.59;4855689;28;45362;-75
2023/02/26 15:13:00;;;;;;;;;3.00;2.00;;;;;6.74;37.11;101686.38;4901363;28;45417;-75
2023/02/26 15:16:01;;;;;;;;;;;;;;;;;;;;;
2023/02/26 15:19:22;;;;;;;;;;;;;;;;;;;;;
2023/02/26 15:25:51;;;;;;;;;2.25;2.25;;;;;6.18;37.91;101624.53;4905021;28;46614;-75
2023/02/26 15:28:39;;;;;;;;;2.75;2.75;;;;;6.70;37.40;101719.09;4905322;28;46102;-75
2023/02/26 15:31:10;;;;;;;;;2.00;2.00;;;;;5.88;37.70;101603.28;4896566;28;45527;-75
2023/02/26 15:33:46;;;;;;;;;1.00;1.00;;;;;6.27;37.92;101664.31;4918013;28;45514;-75
2023/02/26 16:04:35;;;;;;;;;5.00;3.00;;;;;6.23;37.93;101671.38;5152011;23;46802;-75
2023/02/26 16:07:02;;;;;;;;;4.00;3.00;;;;;6.16;37.86;101648.38;4866276;29;45510;-75
2023/02/26 16:09:40;;;;;;;;;5.50;5.50;;;;;6.25;37.35;101666.09;4862125;29;48082;-75
2023/02/26 16:12:10;;;;;;;;;3.50;3.00;;;;;6.23;37.82;101673.13;4859209;29;45393;-76
2023/02/26 16:14:40;;;;;;;;;3.00;3.00;;;;;6.14;37.58;101662.53;4870586;29;45837;-75
2023/02/26 16:17:10;;;;;;;;;3.50;3.50;;;;;6.46;38.08;101712.91;4874122;29;45525;-75
2023/02/26 16:19:43;;;;;;;;;3.00;3.00;;;;;6.37;37.73;101689.94;4868794;29;46443;-75
2023/02/26 16:22:14;;;;;;;;;3.00;3.00;;;;;6.60;37.71;101734.13;4878404;29;45674;-75
2023/02/26 16:24:40;;;;;;;;;6.25;6.25;;;;;6.12;38.01;101659.88;4856914;29;45640;-75
2023/02/26 16:27:16;;;;;;;;;5.00;2.50;;;;;6.43;38.04;101695.25;4864533;29;45768;-75
2023/02/26 16:29:52;;;;;;;;;4.50;4.50;;;;;6.36;38.09;101666.94;4852877;29;47143;-76
2023/02/26 16:32:25;;;;;;;;;5.00;5.00;;;;;6.66;38.05;101737.66;4876704;29;45465;-75
2023/02/26 16:34:53;;;;;;;;;4.50;4.50;;;;;6.27;37.80;101681.09;4876556;29;45504;-75
2023/02/26 16:37:33;;;;;;;;;5.25;5.00;;;;;6.18;38.32;101666.94;4866403;29;45786;-75
2023/02/26 16:40:10;;;;;;;;;3.00;2.00;;;;;6.61;37.86;101726.16;4859253;29;47138;-75
2023/02/26 16:42:53;;;;;;;;;6.00;6.00;;;;;6.27;37.84;101664.31;4868296;29;45455;-75
2023/02/26 16:45:22;;;;;;;;;2.00;2.00;;;;;6.52;38.11;101709.41;4848765;29;45467;-76
2023/02/26 16:47:56;;;;;;;;;3.00;3.00;;;;;6.44;38.31;101727.97;4871804;29;45716;-76
2023/02/26 16:50:29;;;;;;;;;3.00;3.00;;;;;6.39;37.43;101720.00;4882660;29;46459;-75
2023/02/26 16:53:20;;;;;;;;;5.75;5.75;;;;;6.36;37.11;101729.72;4887066;29;45513;-75
2023/02/26 16:55:52;;;;;;;;;7.00;5.50;;;;;6.02;37.79;101690.78;4864398;29;45462;-75
2023/02/26 16:58:20;;;;;;;;;5.50;5.50;;;;;6.07;38.12;101717.31;4858084;29;45925;-75
2023/02/26 17:01:01;;;;;;;;;5.50;5.50;;;;;5.92;37.77;101697.78;4876542;29;46911;-75
2023/02/26 17:03:35;;;;;;;;;6.50;5.00;;;;;5.92;37.99;101712.81;4867183;29;45526;-75
2023/02/26 17:06:17;;;;;;;;;5.75;4.50;;;;;5.72;37.67;101699.53;4874095;29;45488;-75
2023/02/26 17:08:58;;;;;;;;;5.00;5.00;;;;;5.94;37.48;101745.50;4870114;29;45477;-74
2023/02/26 17:11:35;;;;;;;;;5.00;5.00;;;;;6.25;37.69;101810.13;4876690;29;46055;-75
2023/02/26 17:14:22;;;;;;;;;5.25;4.50;;;;;6.30;37.97;101811.03;4875994;29;45667;-75
2023/02/26 17:16:49;;;;;;;;;5.25;5.25;;;;;5.94;38.43;101748.16;4876874;29;45434;-75
2023/02/26 17:19:15;;;;;;;;;3.00;3.00;;;;;6.00;38.17;101758.81;4861017;29;45563;-75
2023/02/26 17:21:53;;;;;;;;;9.50;7.00;;;;;5.81;38.52;101728.69;4875983;29;46300;-75
2023/02/26 17:24:27;;;;;;;;;10.00;6.75;;;;;6.40;38.35;101819.91;4879908;29;45389;-75
2023/02/26 17:26:54;;;;;;;;;8.00;6.50;;;;;6.25;38.03;101812.78;4882441;29;45333;-75
2023/02/26 17:29:35;;;;;;;;;7.50;5.50;;;;;6.05;38.69;101777.41;4871057;29;45445;-75
2023/02/26 17:32:00;;;;;;;;;6.25;5.00;;;;;6.04;38.76;101771.19;4873166;29;46092;-75
2023/02/26 17:34:26;;;;;;;;;3.50;3.50;;;;;6.14;38.33;101798.63;4882548;29;45559;-75
2023/02/26 17:36:53;;;;;;;;;2.25;2.25;;;;;6.02;39.36;101772.97;4881052;29;45569;-74
2023/02/26 17:39:21;;;;;;;;;7.00;6.00;;;;;5.92;38.92;101772.00;4877365;29;45606;-74
2023/02/26 17:41:47;;;;;;;;;5.00;5.00;;;;;6.14;38.86;101811.00;4882495;29;45615;-75
2023/02/26 17:44:13;;;;;;;;;7.00;7.00;;;;;5.97;38.85;101784.44;4857921;29;45763;-75
2023/02/26 17:46:41;;;;;;;;;5.50;5.50;;;;;6.19;39.08;101839.28;4859935;29;45532;-75
2023/02/26 17:49:09;;;;;;;;;6.25;5.25;;;;;5.93;38.74;101791.44;4880113;29;45452;-74
2023/02/26 17:51:40;;;;;;;;;5.75;5.75;;;;;6.20;38.80;101872.88;4866928;29;48148;-75
2023/02/26 17:54:08;;;;;;;;;5.75;5.00;;;;;5.75;39.12;101795.78;4870651;29;45523;-75
2023/02/26 17:56:45;;;;;;;;;6.75;5.50;;;;;5.66;38.60;101777.19;4859695;29;45481;-75
2023/02/26 17:59:11;;;;;;;;;3.00;3.00;;;;;5.79;38.98;101812.59;4859635;29;45654;-75
2023/02/26 18:01:40;;;;;;;;;5.25;5.25;;;;;5.68;39.17;101801.94;4865661;29;47329;-75
2023/02/26 18:04:08;;;;;;;;;7.00;5.50;;;;;5.58;39.14;101794.84;4858361;29;45725;-74
2023/02/26 18:06:36;;;;;;;;;3.00;3.00;;;;;6.05;39.27;101881.66;4862123;29;45474;-75
2023/02/26 18:09:05;;;;;;;;;4.00;4.00;;;;;5.93;39.26;101873.59;4862251;29;45456;-75
2023/02/26 18:11:35;;;;;;;;;5.00;5.00;;;;;5.59;39.32;101803.66;4867991;29;46037;-75
2023/02/26 18:14:01;;;;;;;;;2.00;2.00;;;;;5.75;39.49;101834.66;4859167;29;45661;-74
2023/02/26 18:16:36;;;;;;;;;4.00;4.00;;;;;5.71;39.37;101823.16;4871206;29;45570;-75
2023/02/26 18:19:04;;;;;;;;;5.50;5.50;;;;;5.51;39.09;101811.56;4855701;29;45676;-74
2023/02/26 18:21:32;;;;;;;;;3.50;3.50;;;;;5.43;39.35;101807.97;4854753;29;46357;-75
2023/02/26 18:23:59;;;;;;;;;5.00;4.50;;;;;5.30;39.60;101775.25;4860983;29;45403;-74
2023/02/26 18:26:30;;;;;;;;;3.00;3.00;;;;;5.49;39.20;101823.91;4854435;29;46219;-74
2023/02/26 18:28:58;;;;;;;;;8.25;4.50;;;;;5.24;39.51;101780.50;4853591;29;45490;-74
2023/02/26 18:31:32;;;;;;;;;5.00;3.00;;;;;5.34;39.51;101822.91;4867473;29;46377;-74
2023/02/26 18:33:58;;;;;;;;;3.00;1.25;;;;;5.83;39.42;101891.22;4852797;29;45344;-75
2023/02/26 18:36:33;;;;;;;;;6.00;3.00;;;;;5.57;39.54;101869.88;4861857;29;45426;-75
2023/02/26 18:39:01;;;;;;;;;3.00;3.00;;;;;5.26;39.61;101822.00;4866416;29;45401;-75
2023/02/26 18:41:29;;;;;;;;;6.00;5.25;;;;;5.25;39.70;101822.88;4858382;29;47283;-75
2023/02/26 18:43:54;;;;;;;;;2.50;1.50;;;;;5.16;39.16;101806.91;4880301;29;45383;-75
2023/02/26 18:46:20;;;;;;;;;3.00;3.00;;;;;5.18;39.76;101811.34;4864714;29;45391;-75
2023/02/26 18:48:46;;;;;;;;;6.25;2.25;;;;;5.03;39.38;101798.03;4866143;29;45569;-75
2023/02/26 18:51:14;;;;;;;;;2.75;1.00;;;;;5.05;39.48;101796.28;4864566;29;48040;-76
2023/02/26 18:53:40;;;;;;;;;3.00;2.00;;;;;5.31;39.56;101827.31;4877414;29;45353;-74
2023/02/26 18:56:06;;;;;;;;;3.00;2.00;;;;;5.26;40.26;101818.47;4850627;29;45526;-77
2023/02/26 18:58:34;;;;;;;;;5.00;2.50;;;;;5.72;39.69;101890.28;4876202;29;45460;-75
2023/02/26 19:01:03;;;;;;;;;2.75;1.25;;;;;5.47;40.12;101847.72;4864073;29;46177;-75
2023/02/26 19:03:28;;;;;;;;;2.00;2.00;;;;;5.26;39.47;101823.75;4861872;29;45781;-75
2023/02/26 19:06:02;;;;;;;;;2.75;1.75;;;;;5.05;39.49;101804.22;4866158;29;45734;-75
2023/02/26 19:08:29;;;;;;;;;2.00;2.00;;;;;5.39;39.29;101850.31;4881971;29;45457;-75
2023/02/26 19:10:55;;;;;;;;;3.00;2.00;;;;;5.38;40.07;101853.84;4880571;29;46254;-75
2023/02/26 19:13:21;;;;;;;;;3.00;3.00;;;;;5.20;40.44;101835.19;4871537;29;45290;-75
2023/02/26 19:15:46;;;;;;;;;1.00;1.00;;;;;5.19;39.85;101860.78;4878252;29;45409;-75
2023/02/26 19:18:12;;;;;;;;;2.00;2.00;;;;;4.93;39.18;101817.34;4856666;29;47792;-74
2023/02/26 19:20:37;;;;;;;;;1.75;1.75;;;;;5.24;39.70;101865.22;4872520;29;45475;-74
2023/02/26 19:23:04;;;;;;;;;1.50;1.50;;;;;4.94;39.62;101833.22;4862435;29;45598;-74
2023/02/26 19:25:30;;;;;;;;;2.50;2.00;;;;;5.09;40.03;101855.41;4875380;29;45741;-74
2023/02/26 19:27:56;;;;;;;;;6.00;4.50;;;;;5.13;40.24;101862.50;4875098;29;45678;-78
2023/02/26 19:30:30;;;;;;;;;2.00;1.75;;;;;5.32;40.00;101890.00;4858442;29;47125;-72
2023/02/26 19:32:56;;;;;;;;;2.50;2.50;;;;;5.36;40.15;101907.66;4893228;29;45467;-74
2023/02/26 19:35:25;;;;;;;;;5.75;3.00;;;;;4.79;39.83;101796.06;4876505;29;45832;-76
2023/02/26 19:37:51;;;;;;;;;3.00;1.75;;;;;5.25;40.00;101888.19;4872222;29;45853;-77
2023/02/26 19:40:18;;;;;;;;;5.25;3.50;;;;;5.32;39.59;101903.25;4864622;29;47424;-76
2023/02/26 19:42:44;;;;;;;;;1.50;1.50;;;;;4.73;40.14;101826.00;4869422;29;45919;-77
2023/02/26 19:45:10;;;;;;;;;4.25;2.00;;;;;4.69;40.23;101823.31;4878623;29;45488;-75
2023/02/26 19:47:36;;;;;;;;;2.00;1.00;;;;;5.01;39.81;101892.38;4878876;29;45523;-73
2023/02/26 19:50:01;;;;;;;;;2.00;2.00;;;;;4.91;39.91;101879.94;4859057;29;47085;-73
2023/02/26 19:52:30;;;;;;;;;1.00;1.00;;;;;5.16;40.43;101928.69;4876958;29;45733;-75
2023/02/26 19:54:58;;;;;;;;;1.75;1.75;;;;;5.20;40.11;101928.72;4872856;29;45451;-79
2023/02/26 19:57:27;;;;;;;;;2.00;2.00;;;;;4.73;39.46;101851.56;4875221;29;45809;-76
2023/02/26 19:59:52;;;;;;;;;1.75;1.75;;;;;4.82;40.22;101873.69;4872209;29;46379;-74
2023/02/26 20:02:18;;;;;;;;;0.00;0.00;;;;;4.94;40.41;101911.72;4859101;29;45848;-75
2023/02/26 20:04:43;;;;;;;;;2.00;2.00;;;;;5.01;40.20;101918.84;4867248;29;45500;-74
2023/02/26 20:07:08;;;;;;;;;1.00;1.00;;;;;4.79;39.96;101876.31;4877403;29;45745;-78
2023/02/26 20:09:36;;;;;;;;;2.00;2.00;;;;;4.93;40.24;101920.53;4871338;29;46227;-77
2023/02/26 20:12:02;;;;;;;;;1.00;1.00;;;;;4.66;40.04;101887.66;4876284;29;45829;-76
2023/02/26 20:14:27;;;;;;;;;0.75;0.75;;;;;4.80;39.79;101928.34;4878618;29;46318;-77
2023/02/26 20:16:53;;;;;;;;;2.75;1.75;;;;;4.50;40.38;101864.56;4880404;29;45829;-77
2023/02/26 20:19:19;;;;;;;;;1.50;1.50;;;;;4.98;40.38;101951.47;4861462;29;48635;-76
2023/02/26 20:21:45;;;;;;;;;2.00;2.00;;;;;4.76;40.39;101908.03;4877331;29;45511;-72
2023/02/26 20:24:10;;;;;;;;;1.00;1.00;;;;;4.62;40.78;101901.69;4873329;29;45763;-75
2023/02/26 20:26:36;;;;;;;;;3.00;2.25;;;;;4.81;40.54;101927.47;4869889;29;45549;-76
2023/02/26 20:29:02;;;;;;;;;3.25;3.25;;;;;5.00;40.47;101962.94;4881259;29;45507;-75
2023/02/26 20:31:28;;;;;;;;;2.25;2.25;;;;;4.90;40.57;101950.50;4883195;29;45472;-76
2023/02/26 20:33:54;;;;;;;;;1.25;1.25;;;;;4.96;40.30;101961.16;4875499;29;45866;-73
2023/02/26 20:36:20;;;;;;;;;1.00;1.00;;;;;4.95;40.77;101943.50;4876959;29;45877;-72
2023/02/26 20:38:48;;;;;;;;;2.00;2.00;;;;;5.05;40.59;101970.06;4875455;29;46920;-76
2023/02/26 20:41:14;;;;;;;;;5.00;2.00;;;;;4.71;40.29;101914.13;4859695;29;45600;-77
2023/02/26 20:43:39;;;;;;;;;2.00;2.00;;;;;4.57;40.84;101892.84;4878309;29;45897;-77
2023/02/26 20:46:05;;;;;;;;;1.00;1.00;;;;;4.55;40.41;101898.09;4862706;29;45723;-77
2023/02/26 20:48:31;;;;;;;;;3.50;1.75;;;;;5.07;40.45;101981.53;4876341;29;46419;-74
2023/02/26 20:51:01;;;;;;;;;0.75;0.75;;;;;4.55;40.86;101892.81;4878494;29;45676;-77
2023/02/26 20:53:29;;;;;;;;;2.00;2.00;;;;;4.33;40.09;101881.13;4880317;29;45492;-78
2023/02/26 20:55:57;;;;;;;;;1.75;1.75;;;;;4.58;40.31;101919.28;4866538;29;45792;-76
2023/02/26 20:58:24;;;;;;;;;1.25;1.00;;;;;4.52;40.30;101918.34;4873892;29;46826;-75
2023/02/26 21:00:51;;;;;;;;;5.25;2.25;;;;;4.63;40.29;101920.22;4875053;29;45513;-77
2023/02/26 21:03:26;;;;;;;;;;;;;;;;;;;;;
2023/02/26 21:05:52;;;;;;;;;1.50;1.50;;;;;4.51;40.48;101925.41;4877931;29;71283;-77
2023/02/26 21:08:17;;;;;;;;;1.00;1.00;;;;;4.40;40.59;101893.53;4877600;29;45570;-75
2023/02/26 21:10:43;;;;;;;;;1.00;1.00;;;;;4.68;40.56;101943.19;4871286;29;45848;-75
2023/02/26 21:13:08;;;;;;;;;2.25;2.25;;;;;4.54;40.95;101919.22;4862216;29;45473;-77
2023/02/26 21:15:34;;;;;;;;;1.00;1.00;;;;;4.70;41.11;101949.41;4880276;29;45917;-76
2023/02/26 21:18:05;;;;;;;;;1.75;1.75;;;;;4.85;40.62;101993.66;4878934;29;45769;-78
2023/02/26 21:20:30;;;;;;;;;2.75;2.00;;;;;4.83;40.78;101999.81;4878545;29;45743;-75
2023/02/26 21:22:56;;;;;;;;;2.25;2.25;;;;;4.79;40.75;101984.78;4862448;29;46146;-76
2023/02/26 21:25:22;;;;;;;;;1.25;1.25;;;;;4.64;40.75;101963.44;4879664;29;45478;-76
2023/02/26 21:27:47;;;;;;;;;2.00;1.00;;;;;4.83;41.07;101999.81;4870424;29;45567;-76
2023/02/26 21:30:14;;;;;;;;;2.00;1.00;;;;;4.32;40.90;101913.69;4861497;29;45804;-77
2023/02/26 21:32:40;;;;;;;;;4.00;4.00;;;;;4.76;41.03;102000.63;4873404;29;45515;-76
2023/02/26 21:35:07;;;;;;;;;2.00;2.00;;;;;4.42;40.55;101927.91;4877541;29;45924;-78
2023/02/26 21:37:33;;;;;;;;;2.00;2.00;;;;;4.61;41.06;101966.94;4878878;29;45750;-75
2023/02/26 21:39:58;;;;;;;;;1.00;1.00;;;;;4.76;41.11;101995.34;4860353;29;45894;-73
2023/02/26 21:42:24;;;;;;;;;3.50;3.50;;;;;4.52;40.54;101958.88;4862445;29;45753;-77
2023/02/26 21:44:49;;;;;;;;;2.75;2.75;;;;;4.72;40.44;101993.50;4879210;29;45449;-77
2023/02/26 21:47:15;;;;;;;;;3.50;1.00;;;;;4.51;41.01;101987.94;4879363;29;46595;-77
2023/02/26 21:49:41;;;;;;;;;1.50;1.50;;;;;4.66;41.28;102011.97;4860353;29;45492;-77
2023/02/26 21:52:06;;;;;;;;;3.25;3.25;;;;;4.64;41.56;101997.81;4853681;29;45571;-77
2023/02/26 21:54:32;;;;;;;;;4.00;2.75;;;;;4.31;41.18;101937.47;4874857;29;45726;-77
2023/02/26 21:57:01;;;;;;;;;1.75;1.75;;;;;4.37;41.64;101951.66;4856284;29;48312;-75
2023/02/26 21:59:29;;;;;;;;;4.00;4.00;;;;;4.46;41.60;101966.75;4877770;29;46088;-76
2023/02/26 22:01:55;;;;;;;;;3.50;3.50;;;;;4.07;41.92;101886.06;4871842;29;45536;-75
2023/02/26 22:04:20;;;;;;;;;3.25;2.00;;;;;4.67;40.92;102003.13;4869628;29;45899;-73
2023/02/26 22:06:46;;;;;;;;;2.25;2.25;;;;;4.56;41.71;101978.31;4872615;29;46142;-77
2023/02/26 22:09:12;;;;;;;;;4.25;3.75;;;;;4.54;41.20;101972.13;4873817;29;46418;-76
2023/02/26 22:11:40;;;;;;;;;3.00;3.00;;;;;4.18;41.22;101921.47;4873563;29;45618;-72
2023/02/26 22:14:06;;;;;;;;;6.50;4.50;;;;;4.48;41.83;101970.31;4880994;29;45721;-76
2023/02/26 22:16:31;;;;;;;;;2.25;2.25;;;;;3.98;41.28;101889.50;4881814;29;45880;-77
2023/02/26 22:18:57;;;;;;;;;3.00;3.00;;;;;4.04;42.01;101886.94;4881762;29;45544;-78
2023/02/26 22:21:25;;;;;;;;;5.00;2.00;;;;;3.97;41.19;101876.25;4882031;29;45884;-78
2023/02/26 22:23:50;;;;;;;;;5.00;2.00;;;;;4.27;41.79;101920.69;4858258;29;45841;-76
2023/02/26 22:26:16;;;;;;;;;5.75;2.25;;;;;4.38;41.43;101960.50;4884206;29;45375;-76
2023/02/26 22:28:41;;;;;;;;;2.50;2.50;;;;;4.27;41.49;101929.47;4882990;29;46099;-76
2023/02/26 22:31:07;;;;;;;;;6.00;4.00;;;;;4.42;41.83;101980.78;4884162;29;45331;-77
2023/02/26 22:33:33;;;;;;;;;4.25;2.00;;;;;4.34;42.10;101964.81;4885039;29;45416;-76
2023/02/26 22:35:58;;;;;;;;;1.25;1.25;;;;;4.47;41.70;101984.38;4867041;29;46235;-75
2023/02/26 22:38:24;;;;;;;;;5.00;3.50;;;;;3.97;42.00;101905.31;4882909;29;45507;-75
2023/02/26 22:40:50;;;;;;;;;4.00;4.00;;;;;4.01;41.42;101909.75;4885600;29;45500;-75
2023/02/26 22:43:15;;;;;;;;;1.25;1.25;;;;;4.36;42.05;101984.25;4865679;29;45433;-75
2023/02/26 22:45:41;;;;;;;;;4.00;2.00;;;;;4.33;41.58;101957.78;4888721;29;46293;-76
2023/02/26 22:48:06;;;;;;;;;4.00;3.75;;;;;4.22;41.99;101946.16;4884901;29;45413;-76
2023/02/26 22:50:32;;;;;;;;;2.00;1.00;;;;;4.20;42.32;101935.56;4882697;29;45447;-76
2023/02/26 22:52:58;;;;;;;;;7.00;2.75;;;;;4.24;42.29;101929.47;4884465;29;45369;-76
2023/02/26 22:55:24;;;;;;;;;4.00;4.00;;;;;4.59;42.36;101975.72;4875574;29;46415;-76
2023/02/26 22:57:49;;;;;;;;;3.50;3.50;;;;;4.26;42.15;101903.06;4878076;29;45650;-75
2023/02/26 23:00:17;;;;;;;;;2.75;1.50;;;;;4.78;41.73;101993.59;4868206;29;45494;-75
2023/02/26 23:02:43;;;;;;;;;2.00;2.00;;;;;4.44;41.55;101928.81;4884836;29;45557;-76
2023/02/26 23:05:09;;;;;;;;;2.00;2.00;;;;;4.79;42.43;101982.16;4871184;29;47917;-76
2023/02/26 23:07:36;;;;;;;;;2.00;2.00;;;;;4.75;42.07;101977.66;4876142;29;45716;-76
2023/02/26 23:10:03;;;;;;;;;3.00;3.00;;;;;4.69;42.04;101966.13;4867288;29;45494;-76
2023/02/26 23:12:29;;;;;;;;;2.00;2.00;;;;;4.61;42.29;101959.00;4867681;29;45754;-76
2023/02/26 23:14:55;;;;;;;;;2.00;2.00;;;;;4.47;41.94;101922.69;4884963;29;46618;-76
2023/02/26 23:17:20;;;;;;;;;2.00;1.00;;;;;4.40;42.34;101921.72;4872629;29;45691;-76